createdAt,value
2017-11-30T00:01:15.658Z,53.00
2017-11-30T00:03:53.514Z,53.00
2017-11-30T00:11:56.427Z,54.60
2017-11-30T00:14:34.077Z,55.70
2017-11-30T00:17:09.568Z,57.00
2017-11-30T00:19:57.093Z,57.40
2017-11-30T00:22:32.800Z,57.20
2017-11-30T00:25:07.879Z,59.70
2017-11-30T00:27:43.078Z,61.40
2017-11-30T00:30:25.259Z,62.10
2017-11-30T00:32:59.089Z,63.10
2017-11-30T00:35:33.430Z,64.10
2017-11-30T00:38:09.516Z,64.80
2017-11-30T00:40:44.568Z,66.10
2017-11-30T00:46:22.036Z,70.30
2017-11-30T00:49:04.522Z,71.60
2017-11-30T00:51:40.130Z,71.60
2017-11-30T00:54:14.676Z,73.40
2017-11-30T00:56:49.749Z,74.50
2017-11-30T00:59:25.806Z,74.80
2017-11-30T01:02:00.162Z,73.60
2017-11-30T01:04:43.718Z,73.80
2017-11-30T01:07:18.322Z,73.90
2017-11-30T01:09:51.752Z,75.40
2017-11-30T01:12:26.679Z,77.70
2017-11-30T01:15:02.894Z,78.60
2017-11-30T01:17:38.262Z,80.40
2017-11-30T01:20:19.583Z,79.90
2017-11-30T01:22:55.014Z,78.80
2017-11-30T01:25:30.455Z,80.90
2017-11-30T01:28:05.438Z,81.50
2017-11-30T01:30:40.245Z,81.40
2017-11-30T01:35:55.282Z,80.00
2017-11-30T01:38:32.075Z,80.40
2017-11-30T01:41:07.131Z,80.10
2017-11-30T01:43:43.164Z,80.30
2017-11-30T01:46:19.809Z,79.80
2017-11-30T01:48:59.540Z,79.20
2017-11-30T01:51:40.166Z,79.30
2017-11-30T01:54:18.806Z,80.30
2017-11-30T01:56:53.660Z,80.30
2017-11-30T01:59:28.022Z,80.90
2017-11-30T02:02:02.620Z,80.80
2017-11-30T02:04:39.180Z,80.60
2017-11-30T02:07:20.892Z,80.70
2017-11-30T02:09:55.983Z,81.70
2017-11-30T02:12:31.861Z,81.80
2017-11-30T02:15:16.664Z,82.40
2017-11-30T02:17:52.525Z,82.00
2017-11-30T02:20:26.793Z,82.50
2017-11-30T02:23:05.115Z,85.00
2017-11-30T02:25:40.067Z,85.60
2017-11-30T02:28:15.941Z,85.00
2017-11-30T02:30:52.188Z,85.00
2017-11-30T02:33:29.804Z,85.10
2017-11-30T02:38:43.221Z,84.40
2017-11-30T02:41:18.046Z,84.60
2017-11-30T02:43:56.742Z,85.00
2017-11-30T02:46:33.201Z,85.10
2017-11-30T02:49:09.538Z,85.00
2017-11-30T02:51:42.852Z,85.80
2017-11-30T02:54:21.715Z,85.30
2017-11-30T02:57:04.109Z,84.80
2017-11-30T02:59:42.023Z,83.70
2017-11-30T03:02:18.277Z,83.50
2017-11-30T03:04:52.119Z,82.70
2017-11-30T03:07:27.168Z,81.30
2017-11-30T03:10:02.669Z,77.80
2017-11-30T03:12:37.876Z,75.90
2017-11-30T03:15:12.764Z,76.10
2017-11-30T03:17:47.787Z,75.60
2017-11-30T03:20:23.732Z,75.70
2017-11-30T03:22:59.184Z,75.90
2017-11-30T03:25:35.121Z,75.70
2017-11-30T03:28:18.632Z,75.40
2017-11-30T03:30:53.229Z,74.70
2017-11-30T03:33:27.665Z,74.30
2017-11-30T03:36:10.905Z,74.70
2017-11-30T03:38:44.850Z,75.00
2017-11-30T03:41:18.241Z,74.60
2017-11-30T03:43:54.254Z,75.10
2017-11-30T03:46:28.497Z,75.50
2017-11-30T03:49:02.660Z,74.30
2017-11-30T03:51:38.298Z,74.40
2017-11-30T03:54:13.585Z,74.40
2017-11-30T03:56:48.303Z,74.10
2017-11-30T03:59:29.946Z,74.60
2017-11-30T04:02:16.427Z,74.50
2017-11-30T04:04:56.531Z,74.60
2017-11-30T04:07:37.090Z,74.90
2017-11-30T04:10:10.549Z,74.80
2017-11-30T04:12:46.534Z,74.70
2017-11-30T04:15:21.831Z,74.30
2017-11-30T04:17:55.680Z,74.30
2017-11-30T04:20:37.781Z,75.00
2017-11-30T04:23:16.823Z,74.80
2017-11-30T04:25:54.911Z,74.60
2017-11-30T04:28:38.081Z,74.90
2017-11-30T04:31:13.083Z,75.20
2017-11-30T04:33:48.150Z,75.00
2017-11-30T04:36:24.748Z,75.10
2017-11-30T04:39:00.638Z,74.60
2017-11-30T04:41:38.781Z,74.00
2017-11-30T04:44:20.798Z,73.90
2017-11-30T04:46:55.182Z,75.40
2017-11-30T04:49:29.608Z,76.10
2017-11-30T04:52:11.829Z,75.60
2017-11-30T04:54:50.109Z,78.10
2017-11-30T04:57:25.771Z,78.30
2017-11-30T05:02:44.570Z,82.20
2017-11-30T05:07:57.966Z,80.90
2017-11-30T05:10:42.536Z,81.10
2017-11-30T05:13:23.328Z,81.00
2017-11-30T05:16:01.356Z,81.20
2017-11-30T05:18:37.271Z,80.50
2017-11-30T05:21:13.353Z,80.50
2017-11-30T05:23:47.732Z,81.80
2017-11-30T05:26:23.763Z,81.80
2017-11-30T05:28:59.093Z,85.20
2017-11-30T05:31:34.992Z,85.30
2017-11-30T05:34:10.033Z,86.60
2017-11-30T05:36:46.179Z,87.20
2017-11-30T05:39:20.333Z,87.80
2017-11-30T05:41:58.913Z,87.70
2017-11-30T05:44:40.547Z,87.30
2017-11-30T05:47:20.779Z,86.70
2017-11-30T05:49:56.054Z,87.60
2017-11-30T05:52:34.374Z,87.60
2017-11-30T05:55:11.700Z,87.50
2017-11-30T05:57:47.132Z,87.50
2017-11-30T06:00:23.176Z,87.70
2017-11-30T06:02:57.813Z,88.20
2017-11-30T06:05:34.061Z,88.50
2017-11-30T06:08:09.032Z,88.50
2017-11-30T06:10:45.710Z,88.50
2017-11-30T06:13:21.913Z,88.50
2017-11-30T06:15:58.919Z,88.50
2017-11-30T06:18:36.905Z,89.40
2017-11-30T06:21:09.807Z,89.60
2017-11-30T06:23:46.816Z,88.70
2017-11-30T06:26:24.958Z,88.60
2017-11-30T06:28:59.481Z,89.00
2017-11-30T06:31:32.884Z,89.60
2017-11-30T06:34:07.417Z,88.90
2017-11-30T06:36:42.482Z,89.40
2017-11-30T06:39:18.008Z,89.80
2017-11-30T06:41:51.766Z,88.80
2017-11-30T06:44:26.030Z,89.00
2017-11-30T06:47:02.954Z,88.60
2017-11-30T06:49:45.590Z,88.10
2017-11-30T06:52:21.300Z,86.50
2017-11-30T06:54:55.279Z,86.60
2017-11-30T06:57:34.182Z,86.00
2017-11-30T07:00:08.174Z,85.30
2017-11-30T07:02:49.760Z,83.10
2017-11-30T07:05:25.911Z,83.50
2017-11-30T07:08:00.843Z,83.50
2017-11-30T07:10:33.898Z,82.90
2017-11-30T07:13:09.995Z,83.30
2017-11-30T07:16:02.982Z,85.70
2017-11-30T07:18:36.970Z,87.90
2017-11-30T07:21:14.677Z,86.90
2017-11-30T07:23:50.392Z,87.60
2017-11-30T07:26:25.389Z,86.60
2017-11-30T07:29:01.373Z,85.70
2017-11-30T07:31:38.971Z,86.10
2017-11-30T07:34:14.640Z,85.90
2017-11-30T07:36:49.944Z,86.00
2017-11-30T07:39:27.467Z,86.60
2017-11-30T07:42:02.608Z,86.50
2017-11-30T07:44:37.711Z,87.30
2017-11-30T07:47:14.928Z,87.30
2017-11-30T07:49:49.761Z,87.10
2017-11-30T07:52:25.753Z,87.50
2017-11-30T07:55:00.990Z,89.00
2017-11-30T07:57:40.206Z,89.50
2017-11-30T08:00:16.601Z,89.60
2017-11-30T08:02:51.645Z,89.60
2017-11-30T08:05:28.306Z,90.00
2017-11-30T08:08:02.676Z,90.10
2017-11-30T08:10:38.407Z,90.20
2017-11-30T08:13:16.933Z,90.30
2017-11-30T08:15:52.023Z,89.60
2017-11-30T08:18:33.435Z,90.30
2017-11-30T08:21:08.413Z,90.10
2017-11-30T08:23:44.950Z,90.30
2017-11-30T08:26:21.174Z,90.40
2017-11-30T08:29:03.744Z,90.50
2017-11-30T08:31:39.829Z,91.40
2017-11-30T08:34:13.967Z,91.60
2017-11-30T08:36:51.123Z,91.70
2017-11-30T08:39:32.043Z,91.60
2017-11-30T08:42:05.681Z,91.80
2017-11-30T08:44:48.926Z,91.90
2017-11-30T08:47:23.562Z,91.60
2017-11-30T08:49:58.238Z,91.80
2017-11-30T08:52:32.363Z,91.40
2017-11-30T08:55:07.566Z,91.40
2017-11-30T08:57:42.641Z,91.50
2017-11-30T09:00:17.856Z,91.30
2017-11-30T09:03:00.999Z,91.00
2017-11-30T09:05:34.313Z,91.10
2017-11-30T09:08:09.051Z,91.00
2017-11-30T09:10:44.879Z,91.30
2017-11-30T09:13:20.603Z,91.90
2017-11-30T09:15:56.600Z,91.90
2017-11-30T09:18:31.593Z,91.80
2017-11-30T09:21:06.739Z,91.50
2017-11-30T09:23:41.947Z,91.70
2017-11-30T09:26:17.934Z,91.50
2017-11-30T09:28:57.864Z,91.50
2017-11-30T09:31:34.461Z,91.80
2017-11-30T09:34:08.166Z,91.40
2017-11-30T09:36:50.398Z,91.30
2017-11-30T09:39:25.936Z,91.50
2017-11-30T09:42:09.611Z,91.10
2017-11-30T09:44:44.655Z,91.10
2017-11-30T09:47:19.275Z,91.00
2017-11-30T09:49:53.710Z,90.90
2017-11-30T09:52:28.790Z,90.70
2017-11-30T09:55:10.241Z,90.60
2017-11-30T09:57:44.762Z,90.50
2017-11-30T10:00:20.775Z,90.50
2017-11-30T10:02:55.382Z,90.50
2017-11-30T10:05:31.040Z,90.40
2017-11-30T10:08:05.807Z,90.70
2017-11-30T10:10:41.934Z,91.40
2017-11-30T10:13:19.418Z,91.30
2017-11-30T10:15:56.119Z,91.60
2017-11-30T10:18:35.656Z,91.50
2017-11-30T10:21:19.217Z,91.70
2017-11-30T10:23:55.238Z,91.50
2017-11-30T10:26:30.410Z,91.50
2017-11-30T10:29:05.516Z,91.40
2017-11-30T10:31:42.266Z,91.30
2017-11-30T10:34:25.851Z,91.40
2017-11-30T10:37:06.612Z,91.30
2017-11-30T10:39:42.830Z,91.10
2017-11-30T10:42:23.121Z,91.10
2017-11-30T10:44:57.638Z,91.20
2017-11-30T10:47:31.987Z,90.80
2017-11-30T10:50:07.044Z,91.00
2017-11-30T10:52:44.430Z,91.20
2017-11-30T10:55:19.663Z,91.10
2017-11-30T10:58:03.379Z,91.30
2017-11-30T11:00:38.299Z,91.10
2017-11-30T11:03:15.484Z,90.80
2017-11-30T11:05:50.690Z,91.00
2017-11-30T11:08:36.324Z,90.80
2017-11-30T11:11:11.963Z,91.10
2017-11-30T11:13:49.249Z,91.00
2017-11-30T11:16:25.041Z,91.30
2017-11-30T11:19:02.378Z,91.20
2017-11-30T11:21:37.442Z,91.10
2017-11-30T11:24:13.987Z,91.00
2017-11-30T11:26:49.090Z,90.90
2017-11-30T11:29:33.441Z,91.20
2017-11-30T11:32:10.032Z,91.40
2017-11-30T11:34:45.067Z,91.30
2017-11-30T11:37:18.412Z,91.30
2017-11-30T11:40:00.422Z,91.20
2017-11-30T11:42:36.319Z,91.10
2017-11-30T11:45:15.028Z,91.10
2017-11-30T11:47:50.063Z,90.90
2017-11-30T11:50:25.115Z,90.90
2017-11-30T11:53:00.271Z,90.80
2017-11-30T11:55:39.916Z,90.80
2017-11-30T11:58:14.926Z,91.00
2017-11-30T12:01:05.184Z,90.90
2017-11-30T12:03:40.281Z,90.80
2017-11-30T12:06:21.812Z,90.60
2017-11-30T12:08:55.663Z,90.60
2017-11-30T12:11:29.786Z,90.40
2017-11-30T12:14:04.396Z,90.30
2017-11-30T12:16:46.321Z,90.50
2017-11-30T12:19:22.464Z,90.30
2017-11-30T12:21:57.405Z,90.70
2017-11-30T12:24:34.405Z,90.30
2017-11-30T12:27:09.617Z,90.30
2017-11-30T12:29:46.419Z,90.30
2017-11-30T12:32:21.957Z,90.30
2017-11-30T12:34:58.080Z,90.30
2017-11-30T12:37:33.156Z,90.20
2017-11-30T12:40:10.524Z,90.00
2017-11-30T12:42:45.818Z,90.00
2017-11-30T12:45:26.523Z,89.50
2017-11-30T12:48:00.808Z,89.10
2017-11-30T12:50:37.627Z,88.10
2017-11-30T12:53:26.440Z,87.60
2017-11-30T12:56:02.073Z,87.60
2017-11-30T12:58:35.119Z,87.30
2017-11-30T13:01:10.639Z,87.40
2017-11-30T13:03:46.942Z,88.30
2017-11-30T13:06:29.964Z,88.30
2017-11-30T13:09:05.166Z,89.00
2017-11-30T13:11:42.038Z,89.20
2017-11-30T13:14:16.348Z,89.30
2017-11-30T13:16:53.478Z,89.60
2017-11-30T13:19:28.690Z,89.30
2017-11-30T13:22:01.546Z,89.60
2017-11-30T13:24:42.764Z,88.90
2017-11-30T13:27:17.350Z,87.60
2017-11-30T13:29:56.171Z,88.00
2017-11-30T13:32:29.016Z,87.80
2017-11-30T13:37:56.455Z,87.50
2017-11-30T13:40:35.675Z,88.20
2017-11-30T13:43:15.172Z,87.90
2017-11-30T13:48:31.602Z,88.10
2017-11-30T13:51:05.988Z,87.90
2017-11-30T13:53:40.325Z,87.30
2017-11-30T13:56:34.247Z,86.70
2017-11-30T13:59:09.305Z,87.00
2017-11-30T14:01:44.650Z,87.60
2017-11-30T14:04:20.078Z,87.30
2017-11-30T14:07:03.864Z,87.60
2017-11-30T14:09:41.166Z,88.00
2017-11-30T14:12:15.704Z,88.10
2017-11-30T14:14:49.789Z,87.40
2017-11-30T14:17:25.663Z,87.80
2017-11-30T14:20:00.733Z,87.90
2017-11-30T14:22:35.128Z,87.60
2017-11-30T14:25:18.738Z,87.70
2017-11-30T14:27:57.377Z,87.40
2017-11-30T14:30:32.542Z,87.40
2017-11-30T14:33:07.617Z,87.90
2017-11-30T14:35:42.933Z,88.00
2017-11-30T14:38:17.743Z,88.10
2017-11-30T14:40:58.180Z,87.90
2017-11-30T14:43:36.080Z,87.80
2017-11-30T14:46:11.165Z,87.30
2017-11-30T14:48:47.021Z,87.50
2017-11-30T14:51:22.067Z,88.00
2017-11-30T14:53:57.179Z,87.40
2017-11-30T14:56:32.337Z,87.80
2017-11-30T14:59:07.345Z,87.10
2017-11-30T15:01:42.394Z,87.80
2017-11-30T15:04:18.570Z,87.70
2017-11-30T15:06:54.315Z,87.60
2017-11-30T15:09:30.970Z,87.60
2017-11-30T15:12:06.063Z,86.90
2017-11-30T15:14:45.840Z,87.10
2017-11-30T15:17:21.998Z,86.90
2017-11-30T15:19:58.704Z,86.70
2017-11-30T15:22:34.162Z,86.80
2017-11-30T15:25:09.469Z,86.30
2017-11-30T15:27:45.451Z,86.50
2017-11-30T15:30:20.930Z,86.70
2017-11-30T15:32:55.194Z,86.60
2017-11-30T15:35:30.298Z,86.70
2017-11-30T15:38:04.218Z,86.10
2017-11-30T15:40:39.278Z,86.70
2017-11-30T15:43:14.365Z,86.50
2017-11-30T15:45:50.275Z,86.30
2017-11-30T15:48:25.188Z,86.20
2017-11-30T15:51:01.948Z,86.10
2017-11-30T15:53:37.080Z,86.60
2017-11-30T15:56:22.155Z,86.60
2017-11-30T15:58:57.336Z,86.70
2017-11-30T16:01:32.193Z,86.70
2017-11-30T16:04:11.149Z,86.80
2017-11-30T16:06:55.462Z,86.90
2017-11-30T16:09:30.430Z,86.20
2017-11-30T16:12:06.565Z,86.20
2017-11-30T16:14:42.580Z,86.10
2017-11-30T16:17:21.970Z,86.30
2017-11-30T16:19:59.967Z,86.90
2017-11-30T16:22:36.135Z,87.00
2017-11-30T16:25:16.450Z,87.00
2017-11-30T16:27:51.544Z,87.30
2017-11-30T16:30:28.541Z,87.30
2017-11-30T16:33:02.260Z,87.20
2017-11-30T16:35:36.602Z,87.20
2017-11-30T16:38:13.880Z,87.00
2017-11-30T16:40:52.686Z,86.80
2017-11-30T16:43:27.150Z,86.70
2017-11-30T16:46:02.351Z,86.00
2017-11-30T16:48:36.791Z,85.60
2017-11-30T16:51:12.103Z,84.80
2017-11-30T16:53:48.588Z,84.50
2017-11-30T16:56:26.165Z,84.40
2017-11-30T16:59:00.574Z,84.40
2017-11-30T17:01:37.033Z,84.30
2017-11-30T17:04:14.452Z,84.10
2017-11-30T17:06:50.468Z,84.30
2017-11-30T17:09:25.518Z,83.90
2017-11-30T17:12:04.592Z,84.80
2017-11-30T17:14:39.897Z,84.90
2017-11-30T17:17:17.477Z,84.50
2017-11-30T17:19:54.318Z,85.00
2017-11-30T17:22:29.699Z,85.90
2017-11-30T17:25:05.083Z,85.70
2017-11-30T17:27:41.148Z,86.20
2017-11-30T17:30:16.443Z,86.30
2017-11-30T17:33:00.337Z,84.20
2017-11-30T17:35:36.214Z,84.40
2017-11-30T17:38:11.492Z,84.50
2017-11-30T17:40:48.018Z,84.50
2017-11-30T17:43:24.344Z,86.20
2017-11-30T17:46:00.499Z,86.70
2017-11-30T17:48:34.636Z,86.40
2017-11-30T17:51:09.873Z,86.40
2017-11-30T17:53:44.978Z,86.80
2017-11-30T17:56:19.890Z,86.90
2017-11-30T17:59:01.305Z,86.30
2017-11-30T18:01:44.914Z,85.80
2017-11-30T18:04:24.503Z,85.90
2017-11-30T18:07:00.237Z,85.80
2017-11-30T18:09:35.546Z,86.20
2017-11-30T18:12:11.851Z,85.90
2017-11-30T18:14:48.684Z,87.20
2017-11-30T18:17:25.023Z,86.70
2017-11-30T18:20:00.856Z,83.00
2017-11-30T18:22:43.256Z,80.20
2017-11-30T18:25:17.847Z,81.30
2017-11-30T18:27:52.201Z,81.10
2017-11-30T18:30:28.374Z,81.10
2017-11-30T18:33:05.110Z,82.70
2017-11-30T18:35:43.883Z,81.20
2017-11-30T18:38:17.290Z,81.30
2017-11-30T18:40:50.071Z,81.50
2017-11-30T18:43:24.364Z,82.40
2017-11-30T18:46:00.905Z,83.60
2017-11-30T18:48:35.288Z,83.70
2017-11-30T18:51:11.244Z,84.50
2017-11-30T18:53:50.704Z,86.80
2017-11-30T18:56:33.272Z,85.70
2017-11-30T19:02:08.877Z,84.50
2017-11-30T19:04:43.982Z,84.50
2017-11-30T19:07:19.601Z,83.10
2017-11-30T19:09:52.621Z,83.10
2017-11-30T19:12:26.098Z,84.10
2017-11-30T19:15:03.215Z,84.50
2017-11-30T19:17:38.253Z,85.10
2017-11-30T19:20:21.199Z,85.00
2017-11-30T19:22:55.116Z,83.30
2017-11-30T19:25:31.229Z,84.00
2017-11-30T19:28:06.400Z,83.70
2017-11-30T19:30:42.590Z,83.50
2017-11-30T19:33:19.371Z,82.70
2017-11-30T19:35:56.586Z,82.80
2017-11-30T19:38:33.271Z,83.20
2017-11-30T19:41:08.222Z,82.80
2017-11-30T19:43:43.710Z,82.90
2017-11-30T19:46:18.102Z,83.00
2017-11-30T19:49:00.101Z,82.80
2017-11-30T19:51:34.827Z,83.20
2017-11-30T19:54:09.940Z,83.80
2017-11-30T19:56:45.004Z,83.00
2017-11-30T19:59:20.006Z,81.00
2017-11-30T20:01:54.642Z,81.60
2017-11-30T20:04:37.138Z,84.80
2017-11-30T20:09:47.087Z,84.30
2017-11-30T20:12:27.177Z,83.50
2017-11-30T20:15:01.502Z,84.30
2017-11-30T20:17:35.580Z,83.60
2017-11-30T20:20:10.717Z,83.10
2017-11-30T20:22:53.416Z,83.50
2017-11-30T20:25:28.601Z,84.60
2017-11-30T20:28:03.536Z,84.30
2017-11-30T20:30:38.621Z,84.40
2017-11-30T20:33:13.673Z,85.80
2017-11-30T20:35:48.150Z,85.30
2017-11-30T20:38:31.018Z,83.10
2017-11-30T20:41:06.098Z,84.00
2017-11-30T20:43:41.277Z,85.20
2017-11-30T20:46:16.436Z,84.90
2017-11-30T20:48:51.264Z,86.70
2017-11-30T20:51:29.689Z,86.40
2017-11-30T20:54:05.013Z,85.70
2017-11-30T20:56:39.289Z,83.60
2017-11-30T20:59:14.462Z,85.30
2017-11-30T21:01:51.024Z,85.00
2017-11-30T21:04:26.622Z,83.30
2017-11-30T21:07:03.112Z,84.30
2017-11-30T21:09:40.530Z,85.60
2017-11-30T21:12:16.695Z,84.00
2017-11-30T21:15:00.242Z,83.30
2017-11-30T21:17:35.272Z,78.70
2017-11-30T21:20:09.643Z,79.90
2017-11-30T21:22:52.615Z,74.20
2017-11-30T21:25:37.400Z,74.20
2017-11-30T21:28:13.041Z,77.00
2017-11-30T21:30:46.575Z,77.50
2017-11-30T21:33:21.164Z,75.00
2017-11-30T21:35:57.433Z,74.80
2017-11-30T21:38:31.129Z,77.30
2017-11-30T21:41:07.822Z,75.70
2017-11-30T21:43:44.643Z,77.30
2017-11-30T21:46:21.039Z,77.00
2017-11-30T21:48:55.075Z,73.20
2017-11-30T21:51:28.485Z,74.50
2017-11-30T21:54:04.379Z,71.00
2017-11-30T21:56:39.288Z,72.50
2017-11-30T21:59:15.706Z,71.90
2017-11-30T22:01:50.892Z,71.00
2017-11-30T22:04:25.999Z,69.50
2017-11-30T22:07:02.609Z,70.20
2017-11-30T22:09:38.495Z,70.40
2017-11-30T22:12:12.634Z,69.90
2017-11-30T22:14:47.208Z,69.80
2017-11-30T22:17:25.934Z,69.50
2017-11-30T22:20:04.320Z,68.20
2017-11-30T22:22:47.414Z,67.00
2017-11-30T22:25:22.692Z,69.20
2017-11-30T22:27:59.187Z,67.30
2017-11-30T22:30:35.598Z,67.60
2017-11-30T22:33:09.197Z,70.20
2017-11-30T22:35:43.407Z,71.60
2017-11-30T22:38:18.470Z,70.70
2017-11-30T22:40:52.938Z,69.50
2017-11-30T22:43:28.836Z,69.10
2017-11-30T22:46:03.500Z,68.80
2017-11-30T22:48:41.421Z,68.60
2017-11-30T22:51:19.112Z,68.50
2017-11-30T22:54:03.346Z,69.90
2017-11-30T22:56:36.965Z,68.50
2017-11-30T22:59:16.167Z,68.70
2017-11-30T23:01:52.395Z,69.20
2017-11-30T23:04:29.743Z,69.30
2017-11-30T23:07:05.503Z,69.60
2017-11-30T23:09:40.784Z,69.30
2017-11-30T23:12:23.154Z,68.90
2017-11-30T23:14:57.675Z,69.10
2017-11-30T23:17:35.144Z,70.10
2017-11-30T23:20:14.332Z,69.70
2017-11-30T23:22:57.022Z,68.80
2017-11-30T23:25:31.595Z,70.70
2017-11-30T23:28:06.289Z,73.40
2017-11-30T23:30:41.987Z,73.70
2017-11-30T23:33:16.830Z,74.20
2017-11-30T23:35:55.478Z,77.00
2017-11-30T23:38:34.344Z,77.30
2017-11-30T23:41:09.058Z,77.60
2017-11-30T23:43:43.242Z,78.10
2017-11-30T23:46:20.158Z,78.00
2017-11-30T23:48:55.374Z,79.00
2017-11-30T23:51:29.883Z,78.30
2017-11-30T23:54:07.100Z,78.20
2017-11-30T23:56:42.712Z,78.40
2017-11-30T23:59:17.306Z,78.10
